N505ZG KIPL-KCRQ
Flight info
| Callsign | N505ZG |
|---|---|
| Flight time | 0h 50m |
| Altitude | 8000 |
| Route | IPL V458 OCN |
| Aircraft | C208/L-SDFGR/C |
Departure
| Time | 2026-05-04 23:00 |
|---|---|
| Airport | Imperial County Airport (KIPL) |
Arrival
| Time | 2026-05-04 23:50 |
|---|---|
| Airport | McClellan-Palomar Airport (KCRQ) |
| Time | Latitude | Longitude | Altitude | Speed | Heading |
|---|---|---|---|---|---|
| 2026-05-04 22:51 | 32.53796 | -115.41838 | 45 ft | 0 kts | 88° |
| 2026-05-04 22:52 | 32.53799 | -115.41818 | 46 ft | 4 kts | 62° |
| 2026-05-04 22:53 | 32.53806 | -115.41805 | 46 ft | 2 kts | 62° |
| 2026-05-04 22:53 | 32.53823 | -115.41804 | 45 ft | 0 kts | 270° |
| 2026-05-04 22:53 | 32.53823 | -115.41806 | 45 ft | 4 kts | 270° |
| 2026-05-04 22:53 | 32.53825 | -115.42002 | 48 ft | 42 kts | 271° |
| 2026-05-04 22:54 | 32.53826 | -115.42481 | 51 ft | 73 kts | 269° |
| 2026-05-04 22:54 | 32.53835 | -115.43192 | 54 ft | 98 kts | 268° |
| 2026-05-04 22:54 | 32.53896 | -115.44061 | 86 ft | 116 kts | 279° |
| 2026-05-04 22:54 | 32.54057 | -115.45071 | 116 ft | 130 kts | 277° |
| 2026-05-04 22:55 | 32.54207 | -115.46186 | 107 ft | 142 kts | 278° |
| 2026-05-04 22:55 | 32.54417 | -115.47359 | 100 ft | 148 kts | 283° |
| 2026-05-04 22:55 | 32.54334 | -115.48563 | 84 ft | 149 kts | 257° |
| 2026-05-04 22:55 | 32.54461 | -115.49782 | 95 ft | 152 kts | 286° |
| 2026-05-04 22:56 | 32.54801 | -115.50959 | 93 ft | 154 kts | 290° |
| 2026-05-04 22:56 | 32.55388 | -115.52034 | 63 ft | 152 kts | 302° |
| 2026-05-04 22:56 | 32.56016 | -115.53013 | 56 ft | 147 kts | 303° |
| 2026-05-04 22:56 | 32.56635 | -115.53946 | 48 ft | 144 kts | 302° |
| 2026-05-04 22:57 | 32.57269 | -115.54854 | 60 ft | 142 kts | 313° |
| 2026-05-04 22:57 | 32.58024 | -115.55613 | 47 ft | 141 kts | 314° |
| 2026-05-04 22:57 | 32.58745 | -115.56385 | 40 ft | 142 kts | 312° |
| 2026-05-04 22:57 | 32.59445 | -115.57215 | 59 ft | 142 kts | 308° |
| 2026-05-04 22:58 | 32.60115 | -115.58103 | 56 ft | 145 kts | 307° |
| 2026-05-04 22:58 | 32.60804 | -115.58969 | 62 ft | 145 kts | 308° |
| 2026-05-04 22:58 | 32.61507 | -115.59845 | 49 ft | 147 kts | 310° |
| 2026-05-04 22:58 | 32.62211 | -115.60697 | 46 ft | 148 kts | 310° |
| 2026-05-04 22:59 | 32.62971 | -115.61509 | 50 ft | 143 kts | 312° |
| 2026-05-04 22:59 | 32.63751 | -115.62238 | 50 ft | 141 kts | 317° |
| 2026-05-04 22:59 | 32.64617 | -115.62752 | 69 ft | 145 kts | 341° |
| 2026-05-04 22:59 | 32.65609 | -115.62857 | 34 ft | 142 kts | 347° |
| 2026-05-04 23:00 | 32.66580 | -115.62733 | 177 ft | 135 kts | 10° |
| 2026-05-04 23:00 | 32.67325 | -115.62238 | 716 ft | 121 kts | 22° |
| 2026-05-04 23:00 | 32.68045 | -115.61665 | 955 ft | 131 kts | 34° |
| 2026-05-04 23:00 | 32.68594 | -115.60770 | 1245 ft | 136 kts | 62° |
| 2026-05-04 23:01 | 32.68904 | -115.59722 | 1571 ft | 130 kts | 71° |
| 2026-05-04 23:01 | 32.69139 | -115.58647 | 1789 ft | 136 kts | 79° |
| 2026-05-04 23:01 | 32.69319 | -115.57517 | 1979 ft | 144 kts | 76° |
| 2026-05-04 23:01 | 32.69550 | -115.56351 | 2238 ft | 147 kts | 76° |
| 2026-05-04 23:02 | 32.69822 | -115.55179 | 2599 ft | 149 kts | 71° |
| 2026-05-04 23:02 | 32.70155 | -115.53989 | 2897 ft | 150 kts | 71° |
| 2026-05-04 23:02 | 32.70496 | -115.52820 | 3190 ft | 152 kts | 69° |
| 2026-05-04 23:02 | 32.70851 | -115.51648 | 3472 ft | 147 kts | 73° |
| 2026-05-04 23:03 | 32.71136 | -115.50491 | 3741 ft | 147 kts | 77° |
| 2026-05-04 23:03 | 32.71338 | -115.49299 | 3982 ft | 145 kts | 82° |
| 2026-05-04 23:03 | 32.71541 | -115.48148 | 4252 ft | 142 kts | 78° |
| 2026-05-04 23:03 | 32.71783 | -115.47006 | 4465 ft | 141 kts | 78° |
| 2026-05-04 23:04 | 32.72025 | -115.45891 | 4604 ft | 144 kts | 79° |
| 2026-05-04 23:04 | 32.72237 | -115.44681 | 4609 ft | 157 kts | 82° |
| 2026-05-04 23:04 | 32.72437 | -115.43435 | 4818 ft | 154 kts | 83° |
| 2026-05-04 23:04 | 32.72657 | -115.42229 | 5130 ft | 141 kts | 83° |
| 2026-05-04 23:05 | 32.72880 | -115.41124 | 5473 ft | 133 kts | 82° |
| 2026-05-04 23:05 | 32.73092 | -115.40101 | 5806 ft | 123 kts | 81° |
| 2026-05-04 23:05 | 32.73291 | -115.39174 | 6163 ft | 106 kts | 81° |
| 2026-05-04 23:05 | 32.73481 | -115.38398 | 6424 ft | 96 kts | 81° |
| 2026-05-04 23:06 | 32.73681 | -115.37616 | 6485 ft | 104 kts | 77° |
| 2026-05-04 23:06 | 32.73935 | -115.36783 | 6644 ft | 107 kts | 76° |
| 2026-05-04 23:06 | 32.74403 | -115.36093 | 6775 ft | 120 kts | 21° |
| 2026-05-04 23:06 | 32.75256 | -115.36076 | 6879 ft | 127 kts | 329° |
| 2026-05-04 23:07 | 32.75795 | -115.36832 | 7011 ft | 121 kts | 279° |
| 2026-05-04 23:07 | 32.76020 | -115.37815 | 7156 ft | 126 kts | 279° |
| 2026-05-04 23:07 | 32.76275 | -115.38809 | 7306 ft | 127 kts | 278° |
| 2026-05-04 23:07 | 32.76523 | -115.39835 | 7469 ft | 130 kts | 277° |
| 2026-05-04 23:08 | 32.76780 | -115.40890 | 7630 ft | 134 kts | 279° |
| 2026-05-04 23:08 | 32.77046 | -115.41963 | 7798 ft | 137 kts | 278° |
| 2026-05-04 23:08 | 32.77304 | -115.43026 | 7944 ft | 139 kts | 278° |
| 2026-05-04 23:08 | 32.77582 | -115.44177 | 7963 ft | 151 kts | 279° |
| 2026-05-04 23:09 | 32.77889 | -115.45413 | 7966 ft | 160 kts | 279° |
| 2026-05-04 23:09 | 32.78205 | -115.46717 | 7958 ft | 167 kts | 281° |
| 2026-05-04 23:09 | 32.78531 | -115.48040 | 7957 ft | 168 kts | 280° |
| 2026-05-04 23:09 | 32.78861 | -115.49398 | 7953 ft | 171 kts | 279° |
| 2026-05-04 23:10 | 32.79191 | -115.50740 | 7959 ft | 171 kts | 280° |
| 2026-05-04 23:10 | 32.79526 | -115.52121 | 7955 ft | 173 kts | 279° |
| 2026-05-04 23:10 | 32.79859 | -115.53485 | 7952 ft | 173 kts | 281° |
| 2026-05-04 23:10 | 32.80197 | -115.54868 | 7958 ft | 173 kts | 279° |
| 2026-05-04 23:11 | 32.80535 | -115.56256 | 7955 ft | 174 kts | 278° |
| 2026-05-04 23:11 | 32.80865 | -115.57625 | 7955 ft | 174 kts | 279° |
| 2026-05-04 23:11 | 32.81199 | -115.59020 | 7951 ft | 175 kts | 279° |
| 2026-05-04 23:11 | 32.81539 | -115.60402 | 7955 ft | 175 kts | 280° |
| 2026-05-04 23:12 | 32.81881 | -115.61810 | 7953 ft | 176 kts | 278° |
| 2026-05-04 23:12 | 32.82217 | -115.63192 | 8001 ft | 176 kts | 278° |
| 2026-05-04 23:12 | 32.82554 | -115.64574 | 7998 ft | 175 kts | 279° |
| 2026-05-04 23:12 | 32.82892 | -115.65967 | 8000 ft | 174 kts | 278° |
| 2026-05-04 23:13 | 32.83220 | -115.67361 | 8001 ft | 179 kts | 278° |
| 2026-05-04 23:13 | 32.83575 | -115.68827 | 8004 ft | 186 kts | 279° |
| 2026-05-04 23:13 | 32.83933 | -115.70318 | 8007 ft | 192 kts | 280° |
| 2026-05-04 23:13 | 32.84309 | -115.71840 | 7997 ft | 189 kts | 281° |
| 2026-05-04 23:14 | 32.84669 | -115.73322 | 7985 ft | 186 kts | 278° |
| 2026-05-04 23:14 | 32.85026 | -115.74769 | 7985 ft | 176 kts | 279° |
| 2026-05-04 23:14 | 32.85356 | -115.76149 | 7982 ft | 169 kts | 277° |
| 2026-05-04 23:14 | 32.85668 | -115.77439 | 8134 ft | 158 kts | 277° |
| 2026-05-04 23:15 | 32.85966 | -115.78658 | 8293 ft | 149 kts | 276° |
| 2026-05-04 23:15 | 32.86240 | -115.79823 | 8451 ft | 143 kts | 276° |
| 2026-05-04 23:15 | 32.86500 | -115.80930 | 8610 ft | 138 kts | 276° |
| 2026-05-04 23:15 | 32.86764 | -115.82015 | 8770 ft | 134 kts | 275° |
| 2026-05-04 23:16 | 32.87016 | -115.83054 | 8934 ft | 130 kts | 275° |
| 2026-05-04 23:16 | 32.87264 | -115.84077 | 9101 ft | 127 kts | 274° |
| 2026-05-04 23:16 | 32.87507 | -115.85079 | 9273 ft | 125 kts | 274° |
| 2026-05-04 23:16 | 32.87737 | -115.86064 | 9443 ft | 122 kts | 273° |
| 2026-05-04 23:17 | 32.87957 | -115.86981 | 9608 ft | 119 kts | 273° |
| 2026-05-04 23:17 | 32.88187 | -115.87926 | 9782 ft | 117 kts | 273° |
| 2026-05-04 23:17 | 32.88412 | -115.88853 | 9941 ft | 115 kts | 274° |
| 2026-05-04 23:17 | 32.88631 | -115.89795 | 9999 ft | 123 kts | 273° |
| 2026-05-04 23:18 | 32.88872 | -115.90805 | 10022 ft | 133 kts | 274° |
| 2026-05-04 23:18 | 32.89132 | -115.91896 | 10021 ft | 141 kts | 276° |
| 2026-05-04 23:18 | 32.89411 | -115.93038 | 10018 ft | 145 kts | 276° |
| 2026-05-04 23:18 | 32.89690 | -115.94198 | 10015 ft | 149 kts | 275° |
| 2026-05-04 23:19 | 32.89976 | -115.95393 | 10026 ft | 151 kts | 276° |
| 2026-05-04 23:19 | 32.90267 | -115.96606 | 10015 ft | 154 kts | 275° |
| 2026-05-04 23:19 | 32.90403 | -115.97173 | 10021 ft | 154 kts | 276° |
| 2026-05-04 23:20 | 32.90696 | -115.98403 | 10022 ft | 155 kts | 276° |
| 2026-05-04 23:20 | 32.90993 | -115.99629 | 10025 ft | 156 kts | 276° |
| 2026-05-04 23:20 | 32.91289 | -116.00878 | 10025 ft | 157 kts | 277° |
| 2026-05-04 23:20 | 32.91593 | -116.02146 | 10019 ft | 160 kts | 276° |
| 2026-05-04 23:21 | 32.91897 | -116.03408 | 10017 ft | 159 kts | 276° |
| 2026-05-04 23:21 | 32.92199 | -116.04680 | 10020 ft | 159 kts | 277° |
| 2026-05-04 23:21 | 32.92504 | -116.05959 | 10026 ft | 162 kts | 276° |
| 2026-05-04 23:21 | 32.92812 | -116.07267 | 10028 ft | 166 kts | 277° |
| 2026-05-04 23:22 | 32.93129 | -116.08579 | 10031 ft | 168 kts | 278° |
| 2026-05-04 23:22 | 32.93451 | -116.09918 | 10030 ft | 168 kts | 278° |
| 2026-05-04 23:22 | 32.93772 | -116.11262 | 10030 ft | 169 kts | 278° |
| 2026-05-04 23:22 | 32.94092 | -116.12609 | 10029 ft | 168 kts | 277° |
| 2026-05-04 23:23 | 32.94409 | -116.13952 | 10032 ft | 168 kts | 277° |
| 2026-05-04 23:23 | 32.94620 | -116.14843 | 10033 ft | 168 kts | 277° |
| 2026-05-04 23:23 | 32.95046 | -116.16625 | 10032 ft | 169 kts | 277° |
| 2026-05-04 23:23 | 32.95261 | -116.17534 | 10030 ft | 168 kts | 277° |
| 2026-05-04 23:24 | 32.95678 | -116.19309 | 10032 ft | 167 kts | 276° |
| 2026-05-04 23:24 | 32.95889 | -116.20195 | 10035 ft | 167 kts | 276° |
| 2026-05-04 23:24 | 32.96210 | -116.21527 | 10035 ft | 167 kts | 276° |
| 2026-05-04 23:24 | 32.96526 | -116.22859 | 10035 ft | 167 kts | 276° |
| 2026-05-04 23:25 | 32.96838 | -116.24194 | 10035 ft | 167 kts | 276° |
| 2026-05-04 23:25 | 32.97150 | -116.25510 | 10035 ft | 167 kts | 277° |
| 2026-05-04 23:25 | 32.97468 | -116.26841 | 10037 ft | 167 kts | 277° |
| 2026-05-04 23:25 | 32.97782 | -116.28176 | 10037 ft | 166 kts | 277° |
| 2026-05-04 23:26 | 32.98099 | -116.29503 | 10038 ft | 166 kts | 276° |
| 2026-05-04 23:26 | 32.98412 | -116.30833 | 10040 ft | 166 kts | 276° |
| 2026-05-04 23:26 | 32.98726 | -116.32157 | 10038 ft | 166 kts | 276° |
| 2026-05-04 23:26 | 32.99031 | -116.33465 | 10041 ft | 166 kts | 275° |
| 2026-05-04 23:27 | 32.99343 | -116.34787 | 10040 ft | 166 kts | 276° |
| 2026-05-04 23:27 | 32.99655 | -116.36114 | 10044 ft | 166 kts | 276° |
| 2026-05-04 23:27 | 32.99964 | -116.37413 | 10044 ft | 165 kts | 276° |
| 2026-05-04 23:27 | 33.00277 | -116.38723 | 10038 ft | 165 kts | 276° |
| 2026-05-04 23:28 | 33.00292 | -116.40012 | 10038 ft | 153 kts | 257° |
| 2026-05-04 23:28 | 33.00604 | -116.41255 | 10032 ft | 171 kts | 298° |
| 2026-05-04 23:28 | 33.01605 | -116.42144 | 10037 ft | 181 kts | 316° |
| 2026-05-04 23:28 | 33.02534 | -116.43096 | 10040 ft | 173 kts | 302° |
| 2026-05-04 23:29 | 33.03313 | -116.44164 | 10047 ft | 174 kts | 300° |
| 2026-05-04 23:29 | 33.04113 | -116.45259 | 10046 ft | 175 kts | 302° |
| 2026-05-04 23:29 | 33.04925 | -116.46345 | 10047 ft | 174 kts | 302° |
| 2026-05-04 23:29 | 33.05735 | -116.47426 | 9975 ft | 176 kts | 302° |
| 2026-05-04 23:30 | 33.06546 | -116.48519 | 9885 ft | 179 kts | 302° |
| 2026-05-04 23:30 | 33.07369 | -116.49626 | 9793 ft | 181 kts | 301° |
| 2026-05-04 23:30 | 33.08212 | -116.50757 | 9684 ft | 182 kts | 302° |
| 2026-05-04 23:30 | 33.09052 | -116.51886 | 9553 ft | 181 kts | 302° |
| 2026-05-04 23:31 | 33.09875 | -116.52988 | 9423 ft | 176 kts | 303° |
| 2026-05-04 23:31 | 33.10682 | -116.54077 | 9287 ft | 170 kts | 302° |
| 2026-05-04 23:31 | 33.11452 | -116.55117 | 9156 ft | 167 kts | 302° |
| 2026-05-04 23:31 | 33.12216 | -116.56142 | 9081 ft | 161 kts | 302° |
| 2026-05-04 23:32 | 33.12951 | -116.57133 | 9022 ft | 158 kts | 302° |
| 2026-05-04 23:32 | 33.13664 | -116.58105 | 8967 ft | 153 kts | 300° |
| 2026-05-04 23:32 | 33.14055 | -116.59205 | 8912 ft | 142 kts | 271° |
| 2026-05-04 23:32 | 33.14094 | -116.60353 | 8865 ft | 140 kts | 266° |
| 2026-05-04 23:33 | 33.14146 | -116.61522 | 8796 ft | 141 kts | 268° |
| 2026-05-04 23:33 | 33.14194 | -116.62684 | 8734 ft | 140 kts | 267° |
| 2026-05-04 23:33 | 33.14241 | -116.63850 | 8655 ft | 140 kts | 267° |
| 2026-05-04 23:33 | 33.14287 | -116.65016 | 8552 ft | 140 kts | 267° |
| 2026-05-04 23:34 | 33.14342 | -116.66149 | 8453 ft | 136 kts | 266° |
| 2026-05-04 23:34 | 33.14376 | -116.67279 | 8356 ft | 137 kts | 266° |
| 2026-05-04 23:34 | 33.14419 | -116.68425 | 8248 ft | 137 kts | 267° |
| 2026-05-04 23:34 | 33.14465 | -116.69566 | 8151 ft | 137 kts | 267° |
| 2026-05-04 23:35 | 33.14506 | -116.70683 | 8049 ft | 135 kts | 267° |
| 2026-05-04 23:35 | 33.14551 | -116.71802 | 7972 ft | 133 kts | 267° |
| 2026-05-04 23:35 | 33.14594 | -116.72906 | 7893 ft | 131 kts | 267° |
| 2026-05-04 23:35 | 33.14636 | -116.73989 | 7823 ft | 130 kts | 267° |
| 2026-05-04 23:36 | 33.14676 | -116.75077 | 7751 ft | 130 kts | 267° |
| 2026-05-04 23:36 | 33.14720 | -116.76131 | 7666 ft | 125 kts | 267° |
| 2026-05-04 23:36 | 33.14760 | -116.77154 | 7575 ft | 121 kts | 266° |
| 2026-05-04 23:36 | 33.14797 | -116.78139 | 7499 ft | 119 kts | 266° |
| 2026-05-04 23:37 | 33.14831 | -116.79127 | 7413 ft | 120 kts | 267° |
| 2026-05-04 23:37 | 33.14870 | -116.80110 | 7333 ft | 119 kts | 268° |
| 2026-05-04 23:37 | 33.14909 | -116.81093 | 7267 ft | 119 kts | 267° |
| 2026-05-04 23:37 | 33.14944 | -116.82101 | 7196 ft | 123 kts | 268° |
| 2026-05-04 23:38 | 33.14983 | -116.83105 | 7164 ft | 121 kts | 268° |
| 2026-05-04 23:38 | 33.15021 | -116.84107 | 7142 ft | 120 kts | 267° |
| 2026-05-04 23:38 | 33.15057 | -116.85090 | 7114 ft | 118 kts | 267° |
| 2026-05-04 23:38 | 33.15093 | -116.86062 | 7058 ft | 117 kts | 268° |
| 2026-05-04 23:39 | 33.15130 | -116.87070 | 6897 ft | 125 kts | 267° |
| 2026-05-04 23:39 | 33.15171 | -116.88136 | 6698 ft | 132 kts | 268° |
| 2026-05-04 23:39 | 33.15214 | -116.89245 | 6499 ft | 134 kts | 269° |
| 2026-05-04 23:39 | 33.15256 | -116.90351 | 6291 ft | 135 kts | 269° |
| 2026-05-04 23:40 | 33.15296 | -116.91480 | 6057 ft | 136 kts | 269° |
| 2026-05-04 23:40 | 33.15339 | -116.92628 | 5834 ft | 137 kts | 269° |
| 2026-05-04 23:40 | 33.15378 | -116.93765 | 5608 ft | 138 kts | 270° |
| 2026-05-04 23:40 | 33.15422 | -116.94911 | 5383 ft | 138 kts | 270° |
| 2026-05-04 23:41 | 33.15465 | -116.96052 | 5158 ft | 138 kts | 271° |
| 2026-05-04 23:41 | 33.15507 | -116.97163 | 5081 ft | 128 kts | 271° |
| 2026-05-04 23:41 | 33.15539 | -116.98196 | 4991 ft | 126 kts | 271° |
| 2026-05-04 23:41 | 33.15581 | -116.99244 | 4856 ft | 126 kts | 271° |
| 2026-05-04 23:42 | 33.15620 | -117.00291 | 4712 ft | 126 kts | 271° |
| 2026-05-04 23:42 | 33.15661 | -117.01335 | 4542 ft | 124 kts | 270° |
| 2026-05-04 23:42 | 33.15700 | -117.02357 | 4399 ft | 126 kts | 271° |
| 2026-05-04 23:42 | 33.15733 | -117.03395 | 4239 ft | 124 kts | 271° |
| 2026-05-04 23:43 | 33.15773 | -117.04415 | 4095 ft | 123 kts | 270° |
| 2026-05-04 23:43 | 33.15806 | -117.05467 | 3962 ft | 131 kts | 272° |
| 2026-05-04 23:43 | 33.15845 | -117.06581 | 3816 ft | 135 kts | 271° |
| 2026-05-04 23:43 | 33.15886 | -117.07682 | 3667 ft | 130 kts | 271° |
| 2026-05-04 23:44 | 33.15911 | -117.08741 | 3511 ft | 129 kts | 264° |
| 2026-05-04 23:44 | 33.15743 | -117.09799 | 3399 ft | 128 kts | 258° |
| 2026-05-04 23:44 | 33.15579 | -117.10830 | 3297 ft | 125 kts | 259° |
| 2026-05-04 23:44 | 33.15426 | -117.11840 | 3123 ft | 122 kts | 261° |
| 2026-05-04 23:45 | 33.15267 | -117.12820 | 2953 ft | 118 kts | 259° |
| 2026-05-04 23:45 | 33.15115 | -117.13792 | 2786 ft | 121 kts | 260° |
| 2026-05-04 23:45 | 33.14955 | -117.14769 | 2619 ft | 120 kts | 259° |
| 2026-05-04 23:45 | 33.14793 | -117.15755 | 2449 ft | 124 kts | 259° |
| 2026-05-04 23:46 | 33.14635 | -117.16787 | 2256 ft | 125 kts | 258° |
| 2026-05-04 23:46 | 33.14474 | -117.17768 | 2082 ft | 114 kts | 258° |
| 2026-05-04 23:46 | 33.14335 | -117.18625 | 1933 ft | 99 kts | 259° |
| 2026-05-04 23:46 | 33.14212 | -117.19373 | 1794 ft | 87 kts | 259° |
| 2026-05-04 23:47 | 33.14103 | -117.20044 | 1667 ft | 75 kts | 258° |
| 2026-05-04 23:47 | 33.14007 | -117.20659 | 1570 ft | 78 kts | 258° |
| 2026-05-04 23:47 | 33.13906 | -117.21247 | 1469 ft | 69 kts | 255° |
| 2026-05-04 23:47 | 33.13803 | -117.21868 | 1361 ft | 81 kts | 261° |
| 2026-05-04 23:48 | 33.13706 | -117.22517 | 1235 ft | 78 kts | 260° |
| 2026-05-04 23:48 | 33.13608 | -117.23136 | 1116 ft | 73 kts | 261° |
| 2026-05-04 23:48 | 33.13515 | -117.23700 | 1010 ft | 69 kts | 258° |
| 2026-05-04 23:48 | 33.13417 | -117.24307 | 910 ft | 79 kts | 259° |
| 2026-05-04 23:49 | 33.13315 | -117.24959 | 791 ft | 80 kts | 258° |
| 2026-05-04 23:49 | 33.13211 | -117.25582 | 662 ft | 71 kts | 261° |
| 2026-05-04 23:49 | 33.13129 | -117.26126 | 582 ft | 63 kts | 258° |
| 2026-05-04 23:49 | 33.13044 | -117.26646 | 503 ft | 66 kts | 259° |
| 2026-05-04 23:50 | 33.12961 | -117.27168 | 393 ft | 63 kts | 260° |
| 2026-05-04 23:50 | 33.12880 | -117.27672 | 331 ft | 57 kts | 258° |
| 2026-05-04 23:50 | 33.12819 | -117.28041 | 332 ft | 28 kts | 261° |
| 2026-05-04 23:50 | 33.12792 | -117.28181 | 331 ft | 9 kts | 243° |
| 2026-05-04 23:51 | 33.12772 | -117.28228 | 332 ft | 9 kts | 244° |
| 2026-05-04 23:51 | 33.12737 | -117.28271 | 329 ft | 3 kts | 201° |
| 2026-05-04 23:51 | 33.12724 | -117.28269 | 331 ft | 0 kts | 160° |
| 2026-05-04 23:51 | 33.12706 | -117.28249 | 330 ft | 8 kts | 107° |
| 2026-05-04 23:52 | 33.12712 | -117.28194 | 329 ft | 9 kts | 78° |
| 2026-05-04 23:52 | 33.12727 | -117.28112 | 328 ft | 8 kts | 80° |
| 2026-05-04 23:52 | 33.12740 | -117.28028 | 329 ft | 12 kts | 80° |
| 2026-05-04 23:52 | 33.12762 | -117.27889 | 327 ft | 21 kts | 76° |
| 2026-05-04 23:53 | 33.12768 | -117.27752 | 330 ft | 12 kts | 161° |
| 2026-05-04 23:53 | 33.12705 | -117.27739 | 330 ft | 10 kts | 169° |
| 2026-05-04 23:53 | 33.12633 | -117.27721 | 330 ft | 10 kts | 166° |
| 2026-05-04 23:53 | 33.12625 | -117.27683 | 328 ft | 3 kts | 44° |
| 2026-05-04 23:54 | 33.12626 | -117.27683 | 328 ft | 0 kts | 44° |